sensor_id;sensor_type;location;lat;lon;timestamp;P1;P2;P0
72329;PMS5003;69154;52.076;5.110;2023-07-31T00:00:25;5;5;
72329;PMS5003;69154;52.076;5.110;2023-07-31T00:02:51;11;10;
72329;PMS5003;69154;52.076;5.110;2023-07-31T00:05:16;10;9;
72329;PMS5003;69154;52.076;5.110;2023-07-31T00:07:41;12;11;
72329;PMS5003;69154;52.076;5.110;2023-07-31T00:10:06;12;11;
72329;PMS5003;69154;52.076;5.110;2023-07-31T00:12:31;10;9;
72329;PMS5003;69154;52.076;5.110;2023-07-31T00:14:57;11;11;
72329;PMS5003;69154;52.076;5.110;2023-07-31T00:17:22;13;12;
72329;PMS5003;69154;52.076;5.110;2023-07-31T00:19:47;17;11;
72329;PMS5003;69154;52.076;5.110;2023-07-31T00:22:13;17;13;
72329;PMS5003;69154;52.076;5.110;2023-07-31T00:24:38;13;13;
72329;PMS5003;69154;52.076;5.110;2023-07-31T00:27:04;14;11;
72329;PMS5003;69154;52.076;5.110;2023-07-31T00:29:30;16;14;
72329;PMS5003;69154;52.076;5.110;2023-07-31T00:31:55;11;11;
72329;PMS5003;69154;52.076;5.110;2023-07-31T00:34:20;17;13;
72329;PMS5003;69154;52.076;5.110;2023-07-31T00:36:47;12;11;
72329;PMS5003;69154;52.076;5.110;2023-07-31T00:39:11;13;11;
72329;PMS5003;69154;52.076;5.110;2023-07-31T00:41:37;15;14;
72329;PMS5003;69154;52.076;5.110;2023-07-31T00:44:03;13;11;
72329;PMS5003;69154;52.076;5.110;2023-07-31T00:46:29;13;13;
72329;PMS5003;69154;52.076;5.110;2023-07-31T00:48:54;11;10;
72329;PMS5003;69154;52.076;5.110;2023-07-31T00:51:20;14;13;
72329;PMS5003;69154;52.076;5.110;2023-07-31T00:53:46;14;12;
72329;PMS5003;69154;52.076;5.110;2023-07-31T00:56:11;14;13;
72329;PMS5003;69154;52.076;5.110;2023-07-31T00:58:36;13;12;
72329;PMS5003;69154;52.076;5.110;2023-07-31T01:01:02;9;9;
72329;PMS5003;69154;52.076;5.110;2023-07-31T01:03:27;14;11;
72329;PMS5003;69154;52.076;5.110;2023-07-31T01:05:55;14;14;
72329;PMS5003;69154;52.076;5.110;2023-07-31T01:08:24;13;12;
72329;PMS5003;69154;52.076;5.110;2023-07-31T01:10:46;14;12;
72329;PMS5003;69154;52.076;5.110;2023-07-31T01:13:09;16;14;
72329;PMS5003;69154;52.076;5.110;2023-07-31T01:15:35;15;11;
72329;PMS5003;69154;52.076;5.110;2023-07-31T01:18:00;11;11;
72329;PMS5003;69154;52.076;5.110;2023-07-31T01:20:26;14;12;
72329;PMS5003;69154;52.076;5.110;2023-07-31T01:23:27;20;18;
72329;PMS5003;69154;52.076;5.110;2023-07-31T01:25:18;16;14;
72329;PMS5003;69154;52.076;5.110;2023-07-31T01:27:42;14;12;
72329;PMS5003;69154;52.076;5.110;2023-07-31T01:30:08;14;12;
72329;PMS5003;69154;52.076;5.110;2023-07-31T01:32:31;15;14;
72329;PMS5003;69154;52.076;5.110;2023-07-31T01:34:57;12;11;
72329;PMS5003;69154;52.076;5.110;2023-07-31T01:37:22;18;14;
72329;PMS5003;69154;52.076;5.110;2023-07-31T01:39:47;12;10;
72329;PMS5003;69154;52.076;5.110;2023-07-31T01:42:12;14;12;
72329;PMS5003;69154;52.076;5.110;2023-07-31T01:44:38;16;13;
72329;PMS5003;69154;52.076;5.110;2023-07-31T01:47:03;12;11;
72329;PMS5003;69154;52.076;5.110;2023-07-31T01:49:28;14;14;
72329;PMS5003;69154;52.076;5.110;2023-07-31T01:51:53;18;15;
72329;PMS5003;69154;52.076;5.110;2023-07-31T01:54:19;10;10;
72329;PMS5003;69154;52.076;5.110;2023-07-31T01:56:44;9;9;
72329;PMS5003;69154;52.076;5.110;2023-07-31T01:59:09;9;9;
72329;PMS5003;69154;52.076;5.110;2023-07-31T02:01:34;15;12;
72329;PMS5003;69154;52.076;5.110;2023-07-31T02:04:00;9;8;
72329;PMS5003;69154;52.076;5.110;2023-07-31T02:06:25;9;8;
72329;PMS5003;69154;52.076;5.110;2023-07-31T02:08:51;12;10;
72329;PMS5003;69154;52.076;5.110;2023-07-31T02:11:17;13;11;
72329;PMS5003;69154;52.076;5.110;2023-07-31T02:13:42;10;8;
72329;PMS5003;69154;52.076;5.110;2023-07-31T02:16:07;9;9;
72329;PMS5003;69154;52.076;5.110;2023-07-31T02:18:32;14;11;
72329;PMS5003;69154;52.076;5.110;2023-07-31T02:20:57;11;10;
72329;PMS5003;69154;52.076;5.110;2023-07-31T02:23:23;9;8;
72329;PMS5003;69154;52.076;5.110;2023-07-31T02:25:48;9;8;
72329;PMS5003;69154;52.076;5.110;2023-07-31T02:28:13;13;10;
72329;PMS5003;69154;52.076;5.110;2023-07-31T02:30:39;12;9;
72329;PMS5003;69154;52.076;5.110;2023-07-31T02:33:05;13;12;
72329;PMS5003;69154;52.076;5.110;2023-07-31T02:35:30;10;9;
72329;PMS5003;69154;52.076;5.110;2023-07-31T02:38:00;14;12;
72329;PMS5003;69154;52.076;5.110;2023-07-31T02:40:21;12;10;
72329;PMS5003;69154;52.076;5.110;2023-07-31T02:42:47;16;11;
72329;PMS5003;69154;52.076;5.110;2023-07-31T02:45:12;15;13;
72329;PMS5003;69154;52.076;5.110;2023-07-31T02:47:38;16;15;
72329;PMS5003;69154;52.076;5.110;2023-07-31T02:50:04;12;11;
72329;PMS5003;69154;52.076;5.110;2023-07-31T02:52:29;13;13;
72329;PMS5003;69154;52.076;5.110;2023-07-31T02:54:55;16;13;
72329;PMS5003;69154;52.076;5.110;2023-07-31T02:57:20;13;10;
72329;PMS5003;69154;52.076;5.110;2023-07-31T02:59:46;19;17;
72329;PMS5003;69154;52.076;5.110;2023-07-31T03:02:11;12;12;
72329;PMS5003;69154;52.076;5.110;2023-07-31T03:04:36;14;12;
72329;PMS5003;69154;52.076;5.110;2023-07-31T03:07:02;15;14;
72329;PMS5003;69154;52.076;5.110;2023-07-31T03:09:27;14;11;
72329;PMS5003;69154;52.076;5.110;2023-07-31T03:11:53;13;12;
72329;PMS5003;69154;52.076;5.110;2023-07-31T03:14:18;13;13;
72329;PMS5003;69154;52.076;5.110;2023-07-31T03:16:44;14;14;
72329;PMS5003;69154;52.076;5.110;2023-07-31T03:19:09;14;13;
72329;PMS5003;69154;52.076;5.110;2023-07-31T03:21:35;16;13;
72329;PMS5003;69154;52.076;5.110;2023-07-31T03:24:00;14;13;
72329;PMS5003;69154;52.076;5.110;2023-07-31T03:26:26;12;12;
72329;PMS5003;69154;52.076;5.110;2023-07-31T03:28:52;17;12;
72329;PMS5003;69154;52.076;5.110;2023-07-31T03:31:18;11;10;
72329;PMS5003;69154;52.076;5.110;2023-07-31T03:33:43;14;12;
72329;PMS5003;69154;52.076;5.110;2023-07-31T03:36:08;21;16;
72329;PMS5003;69154;52.076;5.110;2023-07-31T03:38:34;12;12;
72329;PMS5003;69154;52.076;5.110;2023-07-31T03:40:59;13;11;
72329;PMS5003;69154;52.076;5.110;2023-07-31T03:43:24;14;14;
72329;PMS5003;69154;52.076;5.110;2023-07-31T03:45:50;13;13;
72329;PMS5003;69154;52.076;5.110;2023-07-31T03:48:15;12;11;
72329;PMS5003;69154;52.076;5.110;2023-07-31T03:50:41;13;12;
72329;PMS5003;69154;52.076;5.110;2023-07-31T03:53:07;17;14;
72329;PMS5003;69154;52.076;5.110;2023-07-31T03:55:33;18;15;
72329;PMS5003;69154;52.076;5.110;2023-07-31T03:57:58;12;11;
72329;PMS5003;69154;52.076;5.110;2023-07-31T04:00:24;16;14;
72329;PMS5003;69154;52.076;5.110;2023-07-31T04:02:49;13;13;
72329;PMS5003;69154;52.076;5.110;2023-07-31T04:05:15;18;15;
72329;PMS5003;69154;52.076;5.110;2023-07-31T04:07:40;13;12;
72329;PMS5003;69154;52.076;5.110;2023-07-31T04:10:06;13;12;
72329;PMS5003;69154;52.076;5.110;2023-07-31T04:12:32;15;14;
72329;PMS5003;69154;52.076;5.110;2023-07-31T04:14:57;20;16;
72329;PMS5003;69154;52.076;5.110;2023-07-31T04:17:23;15;13;
72329;PMS5003;69154;52.076;5.110;2023-07-31T04:19:48;12;12;
72329;PMS5003;69154;52.076;5.110;2023-07-31T04:22:14;12;12;
72329;PMS5003;69154;52.076;5.110;2023-07-31T04:24:39;14;13;
72329;PMS5003;69154;52.076;5.110;2023-07-31T04:27:05;17;14;
72329;PMS5003;69154;52.076;5.110;2023-07-31T04:29:30;13;11;
72329;PMS5003;69154;52.076;5.110;2023-07-31T04:31:56;13;12;
72329;PMS5003;69154;52.076;5.110;2023-07-31T04:34:21;13;11;
72329;PMS5003;69154;52.076;5.110;2023-07-31T04:36:46;12;11;
72329;PMS5003;69154;52.076;5.110;2023-07-31T04:39:11;17;13;
72329;PMS5003;69154;52.076;5.110;2023-07-31T04:41:37;17;11;
72329;PMS5003;69154;52.076;5.110;2023-07-31T04:44:02;16;13;
72329;PMS5003;69154;52.076;5.110;2023-07-31T04:46:28;12;12;
72329;PMS5003;69154;52.076;5.110;2023-07-31T04:48:53;15;11;
72329;PMS5003;69154;52.076;5.110;2023-07-31T04:51:18;12;12;
72329;PMS5003;69154;52.076;5.110;2023-07-31T04:53:43;11;11;
72329;PMS5003;69154;52.076;5.110;2023-07-31T04:56:09;12;12;
72329;PMS5003;69154;52.076;5.110;2023-07-31T04:58:34;14;13;
72329;PMS5003;69154;52.076;5.110;2023-07-31T05:00:59;12;11;
72329;PMS5003;69154;52.076;5.110;2023-07-31T05:03:25;12;11;
72329;PMS5003;69154;52.076;5.110;2023-07-31T05:05:50;10;10;
72329;PMS5003;69154;52.076;5.110;2023-07-31T05:08:16;11;10;
72329;PMS5003;69154;52.076;5.110;2023-07-31T05:10:41;12;11;
72329;PMS5003;69154;52.076;5.110;2023-07-31T05:13:06;10;10;
72329;PMS5003;69154;52.076;5.110;2023-07-31T05:15:31;12;12;
72329;PMS5003;69154;52.076;5.110;2023-07-31T05:17:56;12;10;
72329;PMS5003;69154;52.076;5.110;2023-07-31T05:20:22;9;9;
72329;PMS5003;69154;52.076;5.110;2023-07-31T05:22:47;9;7;
72329;PMS5003;69154;52.076;5.110;2023-07-31T05:25:12;8;7;
72329;PMS5003;69154;52.076;5.110;2023-07-31T05:27:38;7;6;
72329;PMS5003;69154;52.076;5.110;2023-07-31T05:30:03;8;7;
72329;PMS5003;69154;52.076;5.110;2023-07-31T05:32:28;8;8;
72329;PMS5003;69154;52.076;5.110;2023-07-31T05:34:53;12;12;
72329;PMS5003;69154;52.076;5.110;2023-07-31T05:37:18;10;10;
72329;PMS5003;69154;52.076;5.110;2023-07-31T05:39:44;13;12;
72329;PMS5003;69154;52.076;5.110;2023-07-31T05:42:09;8;8;
72329;PMS5003;69154;52.076;5.110;2023-07-31T05:44:34;12;10;
72329;PMS5003;69154;52.076;5.110;2023-07-31T05:46:59;11;11;
72329;PMS5003;69154;52.076;5.110;2023-07-31T05:49:24;10;8;
72329;PMS5003;69154;52.076;5.110;2023-07-31T05:51:50;11;11;
72329;PMS5003;69154;52.076;5.110;2023-07-31T05:54:15;8;8;
72329;PMS5003;69154;52.076;5.110;2023-07-31T05:56:41;8;7;
72329;PMS5003;69154;52.076;5.110;2023-07-31T05:59:06;10;8;
72329;PMS5003;69154;52.076;5.110;2023-07-31T06:01:31;8;8;
72329;PMS5003;69154;52.076;5.110;2023-07-31T06:03:56;8;7;
72329;PMS5003;69154;52.076;5.110;2023-07-31T06:06:21;10;9;
72329;PMS5003;69154;52.076;5.110;2023-07-31T06:08:46;9;9;
72329;PMS5003;69154;52.076;5.110;2023-07-31T06:11:11;8;7;
72329;PMS5003;69154;52.076;5.110;2023-07-31T06:13:36;10;9;
72329;PMS5003;69154;52.076;5.110;2023-07-31T06:16:01;10;8;
72329;PMS5003;69154;52.076;5.110;2023-07-31T06:18:26;9;8;
72329;PMS5003;69154;52.076;5.110;2023-07-31T06:20:51;6;6;
72329;PMS5003;69154;52.076;5.110;2023-07-31T06:23:16;6;6;
72329;PMS5003;69154;52.076;5.110;2023-07-31T06:25:41;8;8;
72329;PMS5003;69154;52.076;5.110;2023-07-31T06:28:06;7;7;
72329;PMS5003;69154;52.076;5.110;2023-07-31T06:30:31;8;8;
72329;PMS5003;69154;52.076;5.110;2023-07-31T06:32:56;9;9;
72329;PMS5003;69154;52.076;5.110;2023-07-31T06:35:21;9;9;
72329;PMS5003;69154;52.076;5.110;2023-07-31T06:37:46;9;8;
72329;PMS5003;69154;52.076;5.110;2023-07-31T06:40:11;9;9;
72329;PMS5003;69154;52.076;5.110;2023-07-31T06:42:36;5;5;
72329;PMS5003;69154;52.076;5.110;2023-07-31T06:45:02;6;6;
72329;PMS5003;69154;52.076;5.110;2023-07-31T06:47:28;7;6;
72329;PMS5003;69154;52.076;5.110;2023-07-31T06:49:54;8;8;
72329;PMS5003;69154;52.076;5.110;2023-07-31T06:52:19;6;6;
72329;PMS5003;69154;52.076;5.110;2023-07-31T06:54:56;6;5;
72329;PMS5003;69154;52.076;5.110;2023-07-31T06:57:11;10;9;
72329;PMS5003;69154;52.076;5.110;2023-07-31T06:59:36;7;7;
72329;PMS5003;69154;52.076;5.110;2023-07-31T07:02:02;5;5;
72329;PMS5003;69154;52.076;5.110;2023-07-31T07:04:27;7;7;
72329;PMS5003;69154;52.076;5.110;2023-07-31T07:06:54;7;7;
72329;PMS5003;69154;52.076;5.110;2023-07-31T07:09:19;7;7;
72329;PMS5003;69154;52.076;5.110;2023-07-31T07:11:45;6;6;
72329;PMS5003;69154;52.076;5.110;2023-07-31T07:14:11;7;6;
72329;PMS5003;69154;52.076;5.110;2023-07-31T07:16:37;5;5;
72329;PMS5003;69154;52.076;5.110;2023-07-31T07:19:03;7;7;
72329;PMS5003;69154;52.076;5.110;2023-07-31T07:21:29;7;7;
72329;PMS5003;69154;52.076;5.110;2023-07-31T07:23:55;5;5;
72329;PMS5003;69154;52.076;5.110;2023-07-31T07:26:20;8;8;
72329;PMS5003;69154;52.076;5.110;2023-07-31T07:28:46;8;7;
72329;PMS5003;69154;52.076;5.110;2023-07-31T07:31:12;5;5;
72329;PMS5003;69154;52.076;5.110;2023-07-31T07:33:37;4;4;
72329;PMS5003;69154;52.076;5.110;2023-07-31T07:36:04;3;3;
72329;PMS5003;69154;52.076;5.110;2023-07-31T07:38:29;4;4;
72329;PMS5003;69154;52.076;5.110;2023-07-31T07:40:55;5;5;
72329;PMS5003;69154;52.076;5.110;2023-07-31T07:43:21;3;3;
72329;PMS5003;69154;52.076;5.110;2023-07-31T07:45:47;3;3;
72329;PMS5003;69154;52.076;5.110;2023-07-31T07:48:12;5;5;
72329;PMS5003;69154;52.076;5.110;2023-07-31T07:50:38;4;4;
72329;PMS5003;69154;52.076;5.110;2023-07-31T07:53:04;3;3;
72329;PMS5003;69154;52.076;5.110;2023-07-31T07:55:30;3;3;
72329;PMS5003;69154;52.076;5.110;2023-07-31T07:57:55;3;3;
72329;PMS5003;69154;52.076;5.110;2023-07-31T08:00:21;4;4;
72329;PMS5003;69154;52.076;5.110;2023-07-31T08:02:47;3;3;
72329;PMS5003;69154;52.076;5.110;2023-07-31T08:05:13;2;2;
72329;PMS5003;69154;52.076;5.110;2023-07-31T08:07:38;3;3;
72329;PMS5003;69154;52.076;5.110;2023-07-31T08:10:05;3;3;
72329;PMS5003;69154;52.076;5.110;2023-07-31T08:12:30;5;5;
72329;PMS5003;69154;52.076;5.110;2023-07-31T08:14:56;3;3;
72329;PMS5003;69154;52.076;5.110;2023-07-31T08:17:22;3;2;
72329;PMS5003;69154;52.076;5.110;2023-07-31T08:19:47;2;2;
72329;PMS5003;69154;52.076;5.110;2023-07-31T08:22:13;2;1;
72329;PMS5003;69154;52.076;5.110;2023-07-31T08:24:39;2;2;
72329;PMS5003;69154;52.076;5.110;2023-07-31T08:27:05;4;4;
72329;PMS5003;69154;52.076;5.110;2023-07-31T08:29:30;3;3;
72329;PMS5003;69154;52.076;5.110;2023-07-31T08:31:56;2;2;
72329;PMS5003;69154;52.076;5.110;2023-07-31T08:34:22;4;4;
72329;PMS5003;69154;52.076;5.110;2023-07-31T08:36:48;5;4;
72329;PMS5003;69154;52.076;5.110;2023-07-31T08:39:13;4;4;
72329;PMS5003;69154;52.076;5.110;2023-07-31T08:41:39;2;2;
72329;PMS5003;69154;52.076;5.110;2023-07-31T08:44:05;3;2;
72329;PMS5003;69154;52.076;5.110;2023-07-31T08:46:31;3;3;
72329;PMS5003;69154;52.076;5.110;2023-07-31T08:48:57;2;2;
72329;PMS5003;69154;52.076;5.110;2023-07-31T08:51:22;4;4;
72329;PMS5003;69154;52.076;5.110;2023-07-31T08:53:48;4;3;
72329;PMS5003;69154;52.076;5.110;2023-07-31T08:56:14;4;4;
72329;PMS5003;69154;52.076;5.110;2023-07-31T08:58:40;5;5;
72329;PMS5003;69154;52.076;5.110;2023-07-31T09:01:06;3;3;
72329;PMS5003;69154;52.076;5.110;2023-07-31T09:03:33;4;4;
72329;PMS5003;69154;52.076;5.110;2023-07-31T09:05:57;4;4;
72329;PMS5003;69154;52.076;5.110;2023-07-31T09:08:23;3;3;
72329;PMS5003;69154;52.076;5.110;2023-07-31T09:10:48;3;3;
72329;PMS5003;69154;52.076;5.110;2023-07-31T09:13:14;3;3;
72329;PMS5003;69154;52.076;5.110;2023-07-31T09:15:40;3;3;
72329;PMS5003;69154;52.076;5.110;2023-07-31T09:18:06;3;3;
72329;PMS5003;69154;52.076;5.110;2023-07-31T09:20:32;4;3;
72329;PMS5003;69154;52.076;5.110;2023-07-31T09:22:58;4;4;
72329;PMS5003;69154;52.076;5.110;2023-07-31T09:25:23;5;4;
72329;PMS5003;69154;52.076;5.110;2023-07-31T09:27:49;4;4;
72329;PMS5003;69154;52.076;5.110;2023-07-31T09:30:15;4;4;
72329;PMS5003;69154;52.076;5.110;2023-07-31T09:32:40;4;4;
72329;PMS5003;69154;52.076;5.110;2023-07-31T09:35:13;3;3;
72329;PMS5003;69154;52.076;5.110;2023-07-31T09:37:32;4;3;
72329;PMS5003;69154;52.076;5.110;2023-07-31T09:39:57;3;3;
72329;PMS5003;69154;52.076;5.110;2023-07-31T09:42:24;4;4;
72329;PMS5003;69154;52.076;5.110;2023-07-31T09:44:49;3;3;
72329;PMS5003;69154;52.076;5.110;2023-07-31T09:47:22;3;3;
72329;PMS5003;69154;52.076;5.110;2023-07-31T09:49:45;3;3;
72329;PMS5003;69154;52.076;5.110;2023-07-31T09:52:10;4;4;
72329;PMS5003;69154;52.076;5.110;2023-07-31T09:54:32;4;4;
72329;PMS5003;69154;52.076;5.110;2023-07-31T09:56:58;7;6;
72329;PMS5003;69154;52.076;5.110;2023-07-31T09:59:24;6;6;
72329;PMS5003;69154;52.076;5.110;2023-07-31T10:01:49;6;6;
72329;PMS5003;69154;52.076;5.110;2023-07-31T10:04:15;6;6;
72329;PMS5003;69154;52.076;5.110;2023-07-31T10:06:42;5;5;
72329;PMS5003;69154;52.076;5.110;2023-07-31T10:09:08;7;7;
72329;PMS5003;69154;52.076;5.110;2023-07-31T10:11:34;7;7;
72329;PMS5003;69154;52.076;5.110;2023-07-31T10:13:58;9;9;
72329;PMS5003;69154;52.076;5.110;2023-07-31T10:16:24;8;8;
72329;PMS5003;69154;52.076;5.110;2023-07-31T10:18:50;8;7;
72329;PMS5003;69154;52.076;5.110;2023-07-31T10:21:16;7;7;
72329;PMS5003;69154;52.076;5.110;2023-07-31T10:23:41;9;9;
72329;PMS5003;69154;52.076;5.110;2023-07-31T10:26:07;9;9;
72329;PMS5003;69154;52.076;5.110;2023-07-31T10:28:33;8;8;
72329;PMS5003;69154;52.076;5.110;2023-07-31T10:30:59;10;10;
72329;PMS5003;69154;52.076;5.110;2023-07-31T10:33:24;11;11;
72329;PMS5003;69154;52.076;5.110;2023-07-31T10:35:50;10;9;
72329;PMS5003;69154;52.076;5.110;2023-07-31T10:38:16;9;9;
72329;PMS5003;69154;52.076;5.110;2023-07-31T10:40:42;11;11;
72329;PMS5003;69154;52.076;5.110;2023-07-31T10:43:08;9;9;
72329;PMS5003;69154;52.076;5.110;2023-07-31T10:45:34;7;7;
72329;PMS5003;69154;52.076;5.110;2023-07-31T10:48:00;9;9;
72329;PMS5003;69154;52.076;5.110;2023-07-31T10:50:25;9;9;
72329;PMS5003;69154;52.076;5.110;2023-07-31T10:52:51;8;7;
72329;PMS5003;69154;52.076;5.110;2023-07-31T10:55:25;7;7;
72329;PMS5003;69154;52.076;5.110;2023-07-31T10:57:44;6;6;
72329;PMS5003;69154;52.076;5.110;2023-07-31T11:00:25;4;4;
72329;PMS5003;69154;52.076;5.110;2023-07-31T11:02:34;4;4;
72329;PMS5003;69154;52.076;5.110;2023-07-31T11:05:07;4;4;
72329;PMS5003;69154;52.076;5.110;2023-07-31T11:07:25;5;5;
72329;PMS5003;69154;52.076;5.110;2023-07-31T11:09:51;5;5;
72329;PMS5003;69154;52.076;5.110;2023-07-31T11:12:17;4;4;
72329;PMS5003;69154;52.076;5.110;2023-07-31T11:14:43;4;4;
72329;PMS5003;69154;52.076;5.110;2023-07-31T11:17:08;4;4;
72329;PMS5003;69154;52.076;5.110;2023-07-31T11:19:34;6;6;
72329;PMS5003;69154;52.076;5.110;2023-07-31T11:22:00;7;7;
72329;PMS5003;69154;52.076;5.110;2023-07-31T11:24:26;7;5;
72329;PMS5003;69154;52.076;5.110;2023-07-31T11:26:52;6;6;
72329;PMS5003;69154;52.076;5.110;2023-07-31T11:29:17;5;5;
72329;PMS5003;69154;52.076;5.110;2023-07-31T11:31:43;8;8;
72329;PMS5003;69154;52.076;5.110;2023-07-31T11:34:09;6;6;
72329;PMS5003;69154;52.076;5.110;2023-07-31T11:36:35;10;10;
72329;PMS5003;69154;52.076;5.110;2023-07-31T11:39:04;8;8;
72329;PMS5003;69154;52.076;5.110;2023-07-31T11:41:28;9;9;
72329;PMS5003;69154;52.076;5.110;2023-07-31T11:43:55;7;6;
72329;PMS5003;69154;52.076;5.110;2023-07-31T11:46:18;8;8;
72329;PMS5003;69154;52.076;5.110;2023-07-31T11:48:43;12;10;
72329;PMS5003;69154;52.076;5.110;2023-07-31T11:51:10;9;9;
72329;PMS5003;69154;52.076;5.110;2023-07-31T11:53:37;9;9;
72329;PMS5003;69154;52.076;5.110;2023-07-31T11:56:01;8;8;
72329;PMS5003;69154;52.076;5.110;2023-07-31T11:58:27;11;11;
72329;PMS5003;69154;52.076;5.110;2023-07-31T12:00:52;8;8;
72329;PMS5003;69154;52.076;5.110;2023-07-31T12:03:18;8;8;
72329;PMS5003;69154;52.076;5.110;2023-07-31T12:05:44;8;8;
72329;PMS5003;69154;52.076;5.110;2023-07-31T12:08:10;7;7;
72329;PMS5003;69154;52.076;5.110;2023-07-31T12:10:35;7;7;
72329;PMS5003;69154;52.076;5.110;2023-07-31T12:13:02;7;7;
72329;PMS5003;69154;52.076;5.110;2023-07-31T12:15:29;10;8;
72329;PMS5003;69154;52.076;5.110;2023-07-31T12:17:53;6;6;
72329;PMS5003;69154;52.076;5.110;2023-07-31T12:20:19;4;4;
72329;PMS5003;69154;52.076;5.110;2023-07-31T12:22:44;7;6;
72329;PMS5003;69154;52.076;5.110;2023-07-31T12:25:15;8;8;
72329;PMS5003;69154;52.076;5.110;2023-07-31T12:27:35;7;7;
72329;PMS5003;69154;52.076;5.110;2023-07-31T12:30:00;6;6;
72329;PMS5003;69154;52.076;5.110;2023-07-31T12:32:26;8;8;
72329;PMS5003;69154;52.076;5.110;2023-07-31T12:34:52;7;7;
72329;PMS5003;69154;52.076;5.110;2023-07-31T12:37:18;7;5;
72329;PMS5003;69154;52.076;5.110;2023-07-31T12:39:43;9;9;
72329;PMS5003;69154;52.076;5.110;2023-07-31T12:42:09;8;8;
72329;PMS5003;69154;52.076;5.110;2023-07-31T12:44:35;7;7;
72329;PMS5003;69154;52.076;5.110;2023-07-31T12:47:01;7;7;
72329;PMS5003;69154;52.076;5.110;2023-07-31T12:49:26;7;6;
72329;PMS5003;69154;52.076;5.110;2023-07-31T12:51:52;9;8;
72329;PMS5003;69154;52.076;5.110;2023-07-31T12:54:18;8;8;
72329;PMS5003;69154;52.076;5.110;2023-07-31T12:56:43;9;7;
72329;PMS5003;69154;52.076;5.110;2023-07-31T12:59:09;7;7;
72329;PMS5003;69154;52.076;5.110;2023-07-31T13:01:35;8;8;
72329;PMS5003;69154;52.076;5.110;2023-07-31T13:04:01;7;7;
72329;PMS5003;69154;52.076;5.110;2023-07-31T13:06:26;8;8;
72329;PMS5003;69154;52.076;5.110;2023-07-31T13:08:52;6;5;
72329;PMS5003;69154;52.076;5.110;2023-07-31T13:11:17;7;7;
72329;PMS5003;69154;52.076;5.110;2023-07-31T13:13:43;7;7;
72329;PMS5003;69154;52.076;5.110;2023-07-31T13:16:09;6;6;
72329;PMS5003;69154;52.076;5.110;2023-07-31T13:18:35;5;5;
72329;PMS5003;69154;52.076;5.110;2023-07-31T13:21:00;7;7;
72329;PMS5003;69154;52.076;5.110;2023-07-31T13:23:26;5;5;
72329;PMS5003;69154;52.076;5.110;2023-07-31T13:25:52;6;5;
72329;PMS5003;69154;52.076;5.110;2023-07-31T13:28:18;2;2;
72329;PMS5003;69154;52.076;5.110;2023-07-31T13:30:43;2;2;
72329;PMS5003;69154;52.076;5.110;2023-07-31T13:33:09;2;2;
72329;PMS5003;69154;52.076;5.110;2023-07-31T13:35:35;4;4;
72329;PMS5003;69154;52.076;5.110;2023-07-31T13:38:01;2;2;
72329;PMS5003;69154;52.076;5.110;2023-07-31T13:40:26;2;2;
72329;PMS5003;69154;52.076;5.110;2023-07-31T13:42:52;4;4;
72329;PMS5003;69154;52.076;5.110;2023-07-31T13:45:18;3;3;
72329;PMS5003;69154;52.076;5.110;2023-07-31T13:47:44;6;5;
72329;PMS5003;69154;52.076;5.110;2023-07-31T13:50:10;2;2;
72329;PMS5003;69154;52.076;5.110;2023-07-31T13:52:35;2;2;
72329;PMS5003;69154;52.076;5.110;2023-07-31T13:55:01;2;2;
72329;PMS5003;69154;52.076;5.110;2023-07-31T13:57:27;5;4;
72329;PMS5003;69154;52.076;5.110;2023-07-31T13:59:53;2;2;
72329;PMS5003;69154;52.076;5.110;2023-07-31T14:02:18;4;4;
72329;PMS5003;69154;52.076;5.110;2023-07-31T14:04:44;4;3;
72329;PMS5003;69154;52.076;5.110;2023-07-31T14:07:10;3;3;
72329;PMS5003;69154;52.076;5.110;2023-07-31T14:09:36;4;4;
72329;PMS5003;69154;52.076;5.110;2023-07-31T14:12:02;3;3;
72329;PMS5003;69154;52.076;5.110;2023-07-31T14:14:27;4;4;
72329;PMS5003;69154;52.076;5.110;2023-07-31T14:16:53;4;4;
72329;PMS5003;69154;52.076;5.110;2023-07-31T14:19:19;4;4;
72329;PMS5003;69154;52.076;5.110;2023-07-31T14:21:45;5;4;
72329;PMS5003;69154;52.076;5.110;2023-07-31T14:24:10;4;4;
72329;PMS5003;69154;52.076;5.110;2023-07-31T14:26:36;5;5;
72329;PMS5003;69154;52.076;5.110;2023-07-31T14:29:02;7;7;
72329;PMS5003;69154;52.076;5.110;2023-07-31T14:31:28;8;8;
72329;PMS5003;69154;52.076;5.110;2023-07-31T14:33:53;7;7;
72329;PMS5003;69154;52.076;5.110;2023-07-31T14:36:19;6;5;
72329;PMS5003;69154;52.076;5.110;2023-07-31T14:38:45;7;7;
72329;PMS5003;69154;52.076;5.110;2023-07-31T14:41:11;8;8;
72329;PMS5003;69154;52.076;5.110;2023-07-31T14:43:37;3;3;
72329;PMS5003;69154;52.076;5.110;2023-07-31T14:46:02;4;4;
72329;PMS5003;69154;52.076;5.110;2023-07-31T14:48:28;4;4;
72329;PMS5003;69154;52.076;5.110;2023-07-31T14:50:54;5;5;
72329;PMS5003;69154;52.076;5.110;2023-07-31T14:53:19;4;4;
72329;PMS5003;69154;52.076;5.110;2023-07-31T14:55:45;5;5;
72329;PMS5003;69154;52.076;5.110;2023-07-31T14:58:11;5;5;
72329;PMS5003;69154;52.076;5.110;2023-07-31T15:00:37;7;7;
72329;PMS5003;69154;52.076;5.110;2023-07-31T15:03:03;8;8;
72329;PMS5003;69154;52.076;5.110;2023-07-31T15:05:28;10;9;
72329;PMS5003;69154;52.076;5.110;2023-07-31T15:07:54;10;10;
72329;PMS5003;69154;52.076;5.110;2023-07-31T15:10:20;11;10;
72329;PMS5003;69154;52.076;5.110;2023-07-31T15:12:45;8;8;
72329;PMS5003;69154;52.076;5.110;2023-07-31T15:15:11;10;10;
72329;PMS5003;69154;52.076;5.110;2023-07-31T15:17:37;8;8;
72329;PMS5003;69154;52.076;5.110;2023-07-31T15:20:03;10;10;
72329;PMS5003;69154;52.076;5.110;2023-07-31T15:22:28;9;9;
72329;PMS5003;69154;52.076;5.110;2023-07-31T15:24:54;9;9;
72329;PMS5003;69154;52.076;5.110;2023-07-31T15:27:20;9;8;
72329;PMS5003;69154;52.076;5.110;2023-07-31T15:29:46;10;10;
72329;PMS5003;69154;52.076;5.110;2023-07-31T15:32:11;8;8;
72329;PMS5003;69154;52.076;5.110;2023-07-31T15:34:37;10;10;
72329;PMS5003;69154;52.076;5.110;2023-07-31T15:37:03;8;7;
72329;PMS5003;69154;52.076;5.110;2023-07-31T15:39:29;7;7;
72329;PMS5003;69154;52.076;5.110;2023-07-31T15:41:54;6;6;
72329;PMS5003;69154;52.076;5.110;2023-07-31T15:44:20;7;7;
72329;PMS5003;69154;52.076;5.110;2023-07-31T15:46:47;8;7;
72329;PMS5003;69154;52.076;5.110;2023-07-31T15:49:12;6;6;
72329;PMS5003;69154;52.076;5.110;2023-07-31T15:51:38;7;7;
72329;PMS5003;69154;52.076;5.110;2023-07-31T15:54:03;4;3;
72329;PMS5003;69154;52.076;5.110;2023-07-31T15:56:29;4;4;
72329;PMS5003;69154;52.076;5.110;2023-07-31T15:58:55;6;6;
72329;PMS5003;69154;52.076;5.110;2023-07-31T16:01:21;3;3;
72329;PMS5003;69154;52.076;5.110;2023-07-31T16:03:47;3;3;
72329;PMS5003;69154;52.076;5.110;2023-07-31T16:06:12;4;4;
72329;PMS5003;69154;52.076;5.110;2023-07-31T16:08:38;3;3;
72329;PMS5003;69154;52.076;5.110;2023-07-31T16:11:04;3;3;
72329;PMS5003;69154;52.076;5.110;2023-07-31T16:13:30;2;2;
72329;PMS5003;69154;52.076;5.110;2023-07-31T16:15:56;4;4;
72329;PMS5003;69154;52.076;5.110;2023-07-31T16:18:21;3;3;
72329;PMS5003;69154;52.076;5.110;2023-07-31T16:20:47;3;3;
72329;PMS5003;69154;52.076;5.110;2023-07-31T16:23:13;3;3;
72329;PMS5003;69154;52.076;5.110;2023-07-31T16:25:39;3;3;